Time;durP1;ratioP1;P1;durP2;ratioP2;P2;SDS_P1;SDS_P2;PMS_P1;PMS_P2;Temp;Humidity;BMP_temperature;BMP_pressure;BME280_temperature;BME280_humidity;BME280_pressure;Samples;Min_cycle;Max_cycle;Signal;HPM_P1;HPM_P2
2023/02/25 00:01:36;;;;;;;0.00;0.00;;;;;;;1.93;90.18;100256.81;6140603;23;20080;-75
2023/02/25 00:04:04;;;;;;;0.00;0.00;;;;;;;2.11;89.62;100296.56;6189320;23;20053;-77
2023/02/25 00:06:32;;;;;;;0.00;0.00;;;;;;;2.05;89.55;100286.63;6166635;23;20016;-76
2023/02/25 00:09:10;;;;;;;0.00;0.00;;;;;;;2.06;89.13;100291.00;6167141;23;19988;-78
2023/02/25 00:11:42;;;;;;;0.00;0.00;;;;;;;1.80;89.56;100257.66;6192154;23;20001;-74
2023/02/25 00:14:11;;;;;;;0.10;0.10;;;;;;;1.88;89.37;100270.94;6193204;23;20012;-77
2023/02/25 00:16:37;;;;;;;0.00;0.00;;;;;;;1.92;89.17;100291.00;6192896;23;19997;-77
2023/02/25 00:19:11;;;;;;;0.00;0.00;;;;;;;1.85;88.65;100281.28;6196964;23;20046;-75
2023/02/25 00:21:37;;;;;;;0.10;0.10;;;;;;;1.88;88.94;100284.41;6175697;23;20020;-76
2023/02/25 00:24:03;;;;;;;0.00;0.00;;;;;;;1.95;88.78;100302.44;6193968;23;20001;-77
2023/02/25 00:26:40;;;;;;;0.10;0.10;;;;;;;1.95;89.15;100302.44;6191373;23;19997;-79
2023/02/25 00:29:09;;;;;;;0.00;0.00;;;;;;;1.88;89.02;100300.59;6195144;23;20021;-77
2023/02/25 00:31:37;;;;;;;0.00;0.00;;;;;;;1.72;88.93;100282.16;6166128;23;20012;-75
2023/02/25 00:34:03;;;;;;;0.10;0.10;;;;;;;1.77;89.56;100309.31;6163150;23;20009;-79
2023/02/25 00:39:15;;;;;;;0.10;0.10;;;;;;;1.61;89.46;100290.88;6193037;23;20001;-79
2023/02/25 00:41:40;;;;;;;0.00;0.00;;;;;;;1.71;89.66;100302.09;6193265;23;20076;-76
2023/02/25 00:44:07;;;;;;;0.10;0.10;;;;;;;1.71;89.45;100302.91;6163302;23;20012;-76
2023/02/25 00:46:33;;;;;;;0.00;0.00;;;;;;;1.60;89.43;100291.94;6160933;23;20030;-75
2023/02/25 00:49:00;;;;;;;0.00;0.00;;;;;;;1.45;89.31;100276.81;6190773;23;20084;-76
2023/02/25 00:51:28;;;;;;;0.00;0.00;;;;;;;1.52;89.58;100318.06;6162526;23;20009;-76
2023/02/25 00:53:59;;;;;;;0.00;0.00;;;;;;;1.37;89.72;100295.91;6164191;23;19997;-75
2023/02/25 00:56:26;;;;;;;0.00;0.00;;;;;;;1.41;89.93;100307.09;6185199;23;20005;-74
2023/02/25 00:58:52;;;;;;;0.00;0.00;;;;;;;1.35;90.13;100306.88;6188445;23;20376;-75
2023/02/25 01:01:22;;;;;;;0.10;0.10;;;;;;;1.33;89.80;100310.81;6187074;23;20000;-76
2023/02/25 01:03:49;;;;;;;0.05;0.05;;;;;;;1.31;90.35;100312.91;6197046;23;20489;-74
2023/02/25 01:06:15;;;;;;;0.00;0.00;;;;;;;1.22;90.02;100302.31;6187779;23;20005;-78
2023/02/25 01:08:41;;;;;;;0.00;0.00;;;;;;;1.16;90.02;100300.47;6191581;23;20040;-75
2023/02/25 01:11:27;;;;;;;0.00;0.00;;;;;;;1.16;89.89;100311.22;6190069;23;20008;-74
2023/02/25 01:13:55;;;;;;;0.05;0.05;;;;;;;1.18;90.21;100303.78;6186062;23;20009;-74
2023/02/25 01:16:23;;;;;;;0.00;0.00;;;;;;;1.23;90.27;100324.72;6168453;23;20008;-77
2023/02/25 01:18:57;;;;;;;0.00;0.00;;;;;;;1.17;90.17;100302.13;6193970;23;20004;-75
2023/02/25 01:21:25;;;;;;;0.00;0.00;;;;;;;1.35;90.29;100320.34;6198703;23;20147;-75
2023/02/25 01:23:58;;;;;;;0.10;0.10;;;;;;;1.24;90.15;100301.28;6191283;23;20092;-76
2023/02/25 01:26:25;;;;;;;0.08;0.08;;;;;;;1.35;90.38;100319.53;6167444;23;20009;-76
2023/02/25 01:28:51;;;;;;;0.10;0.10;;;;;;;1.21;89.96;100303.38;6163155;23;20025;-77
2023/02/25 01:31:23;;;;;;;0.00;0.00;;;;;;;1.29;89.39;100321.19;6190543;23;20008;-77
2023/02/25 01:33:56;;;;;;;0.00;0.00;;;;;;;1.20;89.88;100308.97;6188161;23;20737;-76
2023/02/25 01:36:21;;;;;;;0.00;0.00;;;;;;;1.21;89.96;100311.47;6141558;23;20024;-77
2023/02/25 01:38:47;;;;;;;0.00;0.00;;;;;;;1.27;90.11;100308.97;6190790;23;20319;-76
2023/02/25 01:41:15;;;;;;;0.00;0.00;;;;;;;1.19;89.93;100297.34;6166940;23;20096;-76
2023/02/25 01:43:41;;;;;;;0.00;0.00;;;;;;;1.17;89.53;100312.91;6192296;23;20016;-77
2023/02/25 01:46:06;;;;;;;0.00;0.00;;;;;;;1.14;90.03;100312.47;6188869;23;20009;-76
2023/02/25 01:48:35;;;;;;;0.00;0.00;;;;;;;1.29;90.35;100320.38;6140562;23;20016;-76
2023/02/25 01:51:06;;;;;;;0.00;0.00;;;;;;;1.39;89.80;100326.16;6187664;23;19989;-78
2023/02/25 01:53:37;;;;;;;0.00;0.00;;;;;;;1.52;89.62;100315.38;6164961;23;20056;-76
2023/02/25 01:56:03;;;;;;;0.10;0.10;;;;;;;1.59;89.25;100295.66;6187510;23;20107;-75
2023/02/25 01:58:32;;;;;;;0.10;0.10;;;;;;;1.67;88.66;100288.19;6165900;23;20033;-76
2023/02/25 02:01:00;;;;;;;0.00;0.00;;;;;;;1.80;88.64;100284.63;6195931;23;19992;-75
2023/02/25 02:03:33;;;;;;;0.10;0.10;;;;;;;1.93;88.03;100294.56;6164179;23;20008;-76
2023/02/25 02:06:05;;;;;;;0.05;0.05;;;;;;;2.21;87.87;100315.81;6190945;23;20009;-76
2023/02/25 02:08:32;;;;;;;0.00;0.00;;;;;;;2.19;86.71;100307.13;6193343;23;20005;-76
2023/02/25 02:11:03;;;;;;;0.00;0.00;;;;;;;2.37;87.42;100317.22;6171246;23;20005;-77
2023/02/25 02:13:32;;;;;;;0.00;0.00;;;;;;;2.41;86.66;100307.66;6197847;23;20060;-77
2023/02/25 02:16:28;;;;;;;0.00;0.00;;;;;;;2.34;86.69;100301.44;6189095;23;20012;-76
2023/02/25 02:19:04;;;;;;;0.00;0.00;;;;;;;2.40;86.37;100316.78;6189855;23;20005;-77
2023/02/25 02:21:48;;;;;;;0.00;0.00;;;;;;;2.43;86.17;100321.75;6189505;23;19997;-76
2023/02/25 02:25:11;;;;;;;0.00;0.00;;;;;;;2.42;86.30;100313.88;6191722;23;20000;-76
2023/02/25 02:28:14;;;;;;;0.00;0.00;;;;;;;2.49;85.93;100319.25;6097722;23;20037;-77
2023/02/25 02:31:06;;;;;;;0.00;0.00;;;;;;;2.46;86.11;100304.31;6072702;23;20010;-77
2023/02/25 02:33:51;;;;;;;0.00;0.00;;;;;;;2.36;85.43;100293.13;6073559;23;20050;-76
2023/02/25 02:36:19;;;;;;;;;;;;;;;2.49;85.07;100314.66;6095198;23;20034;-76
2023/02/25 02:38:55;;;;;;;0.00;0.00;;;;;;;2.51;84.73;100312.59;6119123;23;19908;-77
2023/02/25 02:41:28;;;;;;;0.00;0.00;;;;;;;2.56;84.59;100315.47;6189430;23;20011;-77
2023/02/25 02:44:17;;;;;;;0.10;0.10;;;;;;;2.43;84.21;100283.16;6165008;23;20039;-79
2023/02/25 02:47:06;;;;;;;0.00;0.00;;;;;;;2.39;84.88;100288.13;6163652;23;20005;-76
2023/02/25 02:49:44;;;;;;;0.00;0.00;;;;;;;2.40;84.83;100297.06;6161507;23;20028;-76
2023/02/25 02:52:20;;;;;;;0.00;0.00;;;;;;;2.35;84.45;100280.69;6189030;23;20011;-76
2023/02/25 02:55:04;;;;;;;0.10;0.10;;;;;;;2.44;84.70;100301.00;6189278;23;20055;-76
2023/02/25 02:57:36;;;;;;;0.00;0.00;;;;;;;2.22;84.25;100271.63;6163039;23;20032;-77
2023/02/25 03:00:16;;;;;;;0.00;0.00;;;;;;;2.38;84.12;100312.63;6166330;23;20383;-78
2023/02/25 03:03:06;;;;;;;0.00;0.00;;;;;;;2.32;84.86;100313.50;6192948;23;20000;-77
2023/02/25 03:05:37;;;;;;;0.10;0.10;;;;;;;2.27;84.10;100312.25;6164974;23;20459;-77
2023/02/25 03:08:13;;;;;;;0.10;0.10;;;;;;;2.18;84.88;100310.03;6188729;23;20491;-77
2023/02/25 03:10:38;;;;;;;0.10;0.10;;;;;;;2.05;84.47;100308.22;6190663;23;20372;-77
2023/02/25 03:13:04;;;;;;;0.10;0.10;;;;;;;1.97;84.81;100316.53;6189052;23;19993;-76
2023/02/25 03:15:31;;;;;;;0.00;0.00;;;;;;;1.83;85.86;100310.34;6112841;23;20005;-76
2023/02/25 03:18:12;;;;;;;0.10;0.10;;;;;;;1.64;85.21;100296.69;6189576;23;20012;-76
2023/02/25 03:20:49;;;;;;;0.00;0.00;;;;;;;1.48;86.59;100303.34;6163932;23;20016;-77
2023/02/25 03:23:22;;;;;;;0.00;0.00;;;;;;;1.44;86.11;100318.28;6190086;23;20035;-77
2023/02/25 03:25:51;;;;;;;0.00;0.00;;;;;;;1.27;86.76;100312.50;6187661;23;20060;-77
2023/02/25 03:28:29;;;;;;;0.00;0.00;;;;;;;1.30;86.96;100324.69;6191785;23;20017;-77
2023/02/25 03:31:15;;;;;;;;;;;;;;;;;;;;;
2023/02/25 03:34:12;;;;;;;0.10;0.10;;;;;;;1.06;87.21;100320.78;6196441;23;20016;-78
2023/02/25 03:36:46;;;;;;;0.00;0.00;;;;;;;1.00;87.48;100317.03;6166136;23;20012;-77
2023/02/25 03:39:18;;;;;;;0.10;0.10;;;;;;;1.02;88.33;100306.88;6162759;23;20056;-77
2023/02/25 03:41:50;;;;;;;0.00;0.00;;;;;;;1.05;87.85;100303.75;6190124;23;20055;-76
2023/02/25 03:44:23;;;;;;;0.10;0.10;;;;;;;1.19;87.73;100316.22;6188959;23;19997;-78
2023/02/25 03:46:50;;;;;;;0.10;0.10;;;;;;;1.21;87.99;100319.53;6165406;23;20032;-76
2023/02/25 03:49:22;;;;;;;0.00;0.00;;;;;;;1.19;88.00;100321.59;6188468;23;20037;-77
2023/02/25 03:51:51;;;;;;;0.00;0.00;;;;;;;0.96;87.61;100300.44;6188729;23;20009;-77
2023/02/25 03:54:19;;;;;;;0.00;0.00;;;;;;;0.89;87.76;100293.41;6188580;23;20018;-77
2023/02/25 03:56:53;;;;;;;0.00;0.00;;;;;;;0.92;88.37;100303.75;6187430;23;20015;-76
2023/02/25 03:59:18;;;;;;;0.10;0.10;;;;;;;0.85;88.86;100301.91;6189546;23;20032;-77
2023/02/25 04:01:46;;;;;;;0.10;0.10;;;;;;;0.82;88.43;100307.69;6138922;23;20009;-77
2023/02/25 04:04:14;;;;;;;0.10;0.10;;;;;;;0.85;88.97;100319.91;6189564;23;20004;-77
2023/02/25 04:06:42;;;;;;;0.10;0.10;;;;;;;0.70;89.42;100306.63;6161982;23;20020;-77
2023/02/25 04:09:19;;;;;;;0.00;0.00;;;;;;;0.68;89.01;100308.69;6164022;23;20062;-77
2023/02/25 04:11:44;;;;;;;0.10;0.10;;;;;;;0.60;89.45;100314.25;6138606;23;20017;-77
2023/02/25 04:14:10;;;;;;;0.00;0.00;;;;;;;0.68;89.86;100322.16;6163971;23;20053;-78
2023/02/25 04:16:36;;;;;;;0.00;0.00;;;;;;;0.60;90.01;100316.94;6170010;23;20073;-76
2023/02/25 04:19:04;;;;;;;0.00;0.00;;;;;;;0.62;89.76;100325.66;6196713;23;19997;-76
2023/02/25 04:21:34;;;;;;;0.10;0.10;;;;;;;0.43;90.29;100317.31;6168612;23;20011;-76
2023/02/25 04:24:00;;;;;;;0.00;0.00;;;;;;;0.42;90.13;100329.09;6165998;23;20005;-77
2023/02/25 04:26:26;;;;;;;0.10;0.10;;;;;;;0.37;90.45;100328.91;6162669;23;19997;-75
2023/02/25 04:28:51;;;;;;;0.00;0.00;;;;;;;0.46;90.52;100341.13;6138284;23;20032;-76
2023/02/25 04:31:17;;;;;;;0.00;0.00;;;;;;;0.35;90.73;100330.94;6166118;23;19997;-76
2023/02/25 04:33:48;;;;;;;0.00;0.00;;;;;;;0.33;90.43;100339.22;6188779;23;20027;-77
2023/02/25 04:36:31;;;;;;;0.00;0.00;;;;;;;0.32;90.80;100325.97;6143625;23;20005;-75
2023/02/25 04:39:01;;;;;;;0.00;0.00;;;;;;;0.39;91.41;100321.44;6160978;23;20036;-76
2023/02/25 04:41:32;;;;;;;0.00;0.00;;;;;;;0.38;91.15;100308.19;6164795;23;20001;-76
2023/02/25 04:43:58;;;;;;;0.00;0.00;;;;;;;0.45;91.12;100331.41;6165940;23;19989;-76
2023/02/25 04:46:27;;;;;;;0.00;0.00;;;;;;;0.43;91.28;100322.69;6163227;23;20013;-77
2023/02/25 04:48:53;;;;;;;0.00;0.00;;;;;;;0.59;91.19;100339.53;6144157;23;20016;-76
2023/02/25 04:51:19;;;;;;;0.10;0.10;;;;;;;0.41;90.62;100316.69;6194459;23;20013;-79
2023/02/25 04:53:45;;;;;;;0.10;0.10;;;;;;;0.42;91.14;100314.84;6141862;23;20042;-76
2023/02/25 04:56:11;;;;;;;0.00;0.00;;;;;;;0.48;90.94;100327.47;6164243;23;20033;-75
2023/02/25 04:58:37;;;;;;;0.10;0.10;;;;;;;0.46;91.45;100316.91;6136444;23;20008;-76
2023/02/25 05:01:05;;;;;;;0.00;0.00;;;;;;;0.53;91.52;100338.47;6186613;23;20001;-78
2023/02/25 05:03:32;;;;;;;0.00;0.00;;;;;;;0.60;91.74;100339.31;6188517;23;20026;-77
2023/02/25 05:05:58;;;;;;;0.00;0.00;;;;;;;0.62;90.68;100341.81;6138768;23;20016;-76
2023/02/25 05:08:24;;;;;;;0.00;0.00;;;;;;;0.59;91.33;100339.53;6160804;23;20107;-77
2023/02/25 05:10:50;;;;;;;0.00;0.00;;;;;;;0.56;90.77;100331.88;6187913;23;20005;-77
2023/02/25 05:13:16;;;;;;;0.00;0.00;;;;;;;0.59;91.13;100337.66;6187647;23;20345;-76
2023/02/25 05:15:42;;;;;;;0.00;0.00;;;;;;;0.66;90.77;100343.06;6189891;23;20005;-76
2023/02/25 05:18:08;;;;;;;0.00;0.00;;;;;;;0.60;91.31;100333.09;6186624;23;20051;-76
2023/02/25 05:20:37;;;;;;;0.00;0.00;;;;;;;0.67;91.82;100344.72;6164311;23;19997;-76
2023/02/25 05:23:03;;;;;;;0.00;0.00;;;;;;;0.61;91.20;100334.75;6161795;23;20049;-76
2023/02/25 05:25:28;;;;;;;0.00;0.00;;;;;;;0.60;91.26;100328.56;6138968;23;20009;-77
2023/02/25 05:27:54;;;;;;;0.10;0.10;;;;;;;0.64;91.41;100335.19;6134355;23;20041;-77
2023/02/25 05:30:20;;;;;;;0.00;0.00;;;;;;;0.83;91.34;100349.75;6189186;23;20036;-75
2023/02/25 05:32:45;;;;;;;0.00;0.00;;;;;;;0.94;91.64;100331.31;6161377;23;20348;-75
2023/02/25 05:35:11;;;;;;;0.00;0.00;;;;;;;1.11;91.07;100354.13;6136282;23;20423;-75
2023/02/25 05:37:37;;;;;;;0.00;0.00;;;;;;;1.26;90.25;100339.66;6188419;23;20005;-76
2023/02/25 05:40:03;;;;;;;0.00;0.00;;;;;;;1.42;89.86;100338.38;6159798;23;20005;-76
2023/02/25 05:42:31;;;;;;;0.00;0.00;;;;;;;1.49;89.29;100337.34;6138139;23;20099;-77
2023/02/25 05:44:56;;;;;;;0.00;0.00;;;;;;;1.62;88.87;100343.75;6184857;23;19993;-76
2023/02/25 05:47:21;;;;;;;0.00;0.00;;;;;;;1.63;88.63;100337.34;6187039;23;20507;-75
2023/02/25 05:49:47;;;;;;;0.10;0.10;;;;;;;1.76;88.62;100353.50;6136456;23;20005;-75
2023/02/25 05:52:15;;;;;;;0.00;0.00;;;;;;;1.75;88.56;100341.03;6160418;23;20001;-76
2023/02/25 05:54:41;;;;;;;0.00;0.00;;;;;;;1.89;87.67;100348.06;6188579;23;20084;-77
2023/02/25 05:57:07;;;;;;;0.00;0.00;;;;;;;1.99;87.77;100353.03;6185725;23;20012;-77
2023/02/25 05:59:32;;;;;;;0.00;0.00;;;;;;;2.11;87.24;100369.41;6187857;23;20024;-76
2023/02/25 06:01:58;;;;;;;0.00;0.00;;;;;;;2.15;87.00;100373.34;6185966;23;20027;-77
2023/02/25 06:04:24;;;;;;;0.00;0.00;;;;;;;2.15;86.79;100357.16;6163796;23;20016;-76
2023/02/25 06:06:52;;;;;;;0.00;0.00;;;;;;;2.24;86.19;100366.66;6186931;23;20344;-77
2023/02/25 06:09:18;;;;;;;0.00;0.00;;;;;;;2.29;87.13;100362.50;6161562;23;20012;-77
2023/02/25 06:11:45;;;;;;;0.00;0.00;;;;;;;2.44;86.27;100376.56;6159914;23;20016;-76
2023/02/25 06:14:10;;;;;;;0.00;0.00;;;;;;;2.42;85.85;100378.66;6182588;23;20005;-77
2023/02/25 06:16:38;;;;;;;0.00;0.00;;;;;;;2.41;85.42;100371.56;6162434;23;20047;-76
2023/02/25 06:19:05;;;;;;;0.00;0.00;;;;;;;2.41;85.38;100371.56;6183200;23;20428;-76
2023/02/25 06:21:32;;;;;;;0.00;0.00;;;;;;;2.41;84.91;100382.38;6188231;23;20569;-76
2023/02/25 06:23:58;;;;;;;0.00;0.00;;;;;;;2.40;84.86;100386.13;6162323;23;19989;-76
2023/02/25 06:26:29;;;;;;;0.00;0.00;;;;;;;2.27;84.95;100368.94;6161778;23;20108;-77
2023/02/25 06:28:56;;;;;;;0.00;0.00;;;;;;;2.29;84.65;100378.69;6187813;23;20012;-76
2023/02/25 06:31:25;;;;;;;0.00;0.00;;;;;;;2.44;85.10;100407.09;6185415;23;20020;-75
2023/02/25 06:33:50;;;;;;;0.10;0.10;;;;;;;2.38;84.99;100399.00;6186747;23;20183;-76
2023/02/25 06:36:19;;;;;;;0.00;0.00;;;;;;;2.43;84.24;100402.72;6159372;23;21074;-77
2023/02/25 06:38:47;;;;;;;0.00;0.00;;;;;;;2.38;85.16;100399.84;6165330;23;20068;-76
2023/02/25 06:41:17;;;;;;;0.00;0.00;;;;;;;2.37;84.41;100389.25;6134721;23;20009;-76
2023/02/25 06:43:43;;;;;;;0.00;0.00;;;;;;;2.45;84.49;100405.22;6187600;23;20001;-76
2023/02/25 06:46:11;;;;;;;0.00;0.00;;;;;;;2.46;84.46;100406.88;6161457;23;20063;-74
2023/02/25 06:48:37;;;;;;;0.00;0.00;;;;;;;2.47;84.22;100408.53;6188031;23;20004;-75
2023/02/25 06:51:07;;;;;;;0.00;0.00;;;;;;;2.47;84.33;100413.94;6162663;23;20009;-75
2023/02/25 06:53:33;;;;;;;0.00;0.00;;;;;;;2.44;84.52;100406.28;6138105;23;20005;-74
2023/02/25 06:55:59;;;;;;;0.00;0.00;;;;;;;2.41;83.68;100410.22;6114370;23;20005;-75
2023/02/25 06:58:24;;;;;;;0.00;0.00;;;;;;;2.40;84.25;100413.94;6187332;23;20427;-75
2023/02/25 07:00:50;;;;;;;0.00;0.00;;;;;;;2.35;83.57;100412.91;6187075;23;19990;-77
2023/02/25 07:03:16;;;;;;;0.00;0.00;;;;;;;2.48;84.21;100437.16;6137222;23;20013;-75
2023/02/25 07:05:42;;;;;;;0.00;0.00;;;;;;;2.42;83.73;100432.63;6187449;23;20017;-76
2023/02/25 07:08:07;;;;;;;0.00;0.00;;;;;;;2.32;83.72;100407.94;6186310;23;20339;-76
2023/02/25 07:10:33;;;;;;;0.00;0.00;;;;;;;2.39;83.88;100427.66;6183732;23;20001;-75
2023/02/25 07:12:59;;;;;;;0.00;0.00;;;;;;;2.25;84.23;100422.28;6188567;23;20463;-75
2023/02/25 07:15:27;;;;;;;0.00;0.00;;;;;;;1.96;84.16;100399.31;6138100;23;20032;-75
2023/02/25 07:17:53;;;;;;;0.00;0.00;;;;;;;2.06;84.63;100421.28;6162056;23;20005;-76
2023/02/25 07:20:18;;;;;;;0.00;0.00;;;;;;;2.03;84.75;100424.41;6163503;23;20025;-75
2023/02/25 07:22:47;;;;;;;0.00;0.00;;;;;;;2.04;85.22;100427.94;6135966;23;20432;-77
2023/02/25 07:25:15;;;;;;;0.00;0.00;;;;;;;2.09;85.34;100433.53;6189218;23;19989;-77
2023/02/25 07:27:42;;;;;;;0.00;0.00;;;;;;;1.98;85.03;100409.91;6161389;23;20012;-76
2023/02/25 07:30:10;;;;;;;0.00;0.00;;;;;;;2.16;85.54;100428.97;6187942;23;20021;-77
2023/02/25 07:32:41;;;;;;;0.10;0.10;;;;;;;2.16;85.22;100422.72;6160791;23;20040;-77
2023/02/25 07:35:09;;;;;;;0.10;0.10;;;;;;;2.35;85.30;100437.22;6187278;23;20012;-76
2023/02/25 07:37:37;;;;;;;0.00;0.00;;;;;;;2.56;85.40;100455.03;6138354;23;20005;-78
2023/02/25 07:40:12;;;;;;;0.00;0.00;;;;;;;2.56;84.49;100434.25;6187597;23;20035;-75
2023/02/25 07:42:42;;;;;;;0.00;0.00;;;;;;;2.85;84.55;100459.06;6188249;23;20021;-76
2023/02/25 07:45:12;;;;;;;0.00;0.00;;;;;;;2.94;83.79;100462.38;6186365;23;20005;-77
2023/02/25 07:47:40;;;;;;;0.00;0.00;;;;;;;2.94;83.02;100446.97;6188165;23;20012;-76
2023/02/25 07:50:07;;;;;;;0.00;0.00;;;;;;;3.07;83.05;100456.06;6160173;23;20009;-79
2023/02/25 07:52:32;;;;;;;0.00;0.00;;;;;;;2.96;82.06;100434.09;6186431;23;20012;-77
2023/02/25 07:54:58;;;;;;;0.00;0.00;;;;;;;3.20;82.37;100461.41;6185777;23;20009;-77
2023/02/25 07:57:34;;;;;;;0.10;0.10;;;;;;;3.23;82.46;100460.97;6138100;23;20097;-77
2023/02/25 08:00:05;;;;;;;0.00;0.00;;;;;;;3.22;81.63;100440.38;6185408;23;20005;-78
2023/02/25 08:02:33;;;;;;;0.10;0.10;;;;;;;3.38;82.02;100455.25;6189585;23;20424;-79
2023/02/25 08:04:59;;;;;;;0.00;0.00;;;;;;;3.37;81.11;100450.06;6185611;23;20012;-78
2023/02/25 08:07:24;;;;;;;0.00;0.00;;;;;;;3.37;81.62;100444.66;6188404;23;20695;-77
2023/02/25 08:09:50;;;;;;;0.00;0.00;;;;;;;3.40;80.73;100438.81;6188328;23;20044;-76
2023/02/25 08:12:33;;;;;;;0.00;0.00;;;;;;;3.49;80.74;100442.94;6162295;23;20008;-77
2023/02/25 08:15:17;;;;;;;0.00;0.00;;;;;;;3.64;80.36;100462.38;6190332;23;20005;-76
2023/02/25 08:17:51;;;;;;;0.00;0.00;;;;;;;3.64;80.52;100451.53;6192825;23;20401;-76
2023/02/25 08:20:17;;;;;;;0.00;0.00;;;;;;;3.88;80.55;100462.59;6197893;23;20005;-75
2023/02/25 08:22:43;;;;;;;0.10;0.10;;;;;;;3.90;79.88;100444.28;6204108;23;20031;-77
2023/02/25 08:25:11;;;;;;;0.00;0.00;;;;;;;4.05;79.79;100451.22;6191041;23;20041;-76
2023/02/25 08:27:36;;;;;;;0.00;0.00;;;;;;;4.27;79.17;100463.28;6190955;23;20009;-76
2023/02/25 08:30:07;;;;;;;0.00;0.00;;;;;;;4.37;79.45;100460.06;6163281;23;20021;-75
2023/02/25 08:32:40;;;;;;;0.10;0.10;;;;;;;4.44;78.59;100460.00;6161156;23;20009;-76
2023/02/25 08:35:06;;;;;;;0.00;0.00;;;;;;;4.87;78.10;100478.06;6188068;23;20009;-76
2023/02/25 08:37:32;;;;;;;0.10;0.10;;;;;;;5.25;77.35;100466.09;6162555;23;20016;-76
2023/02/25 08:39:58;;;;;;;0.00;0.00;;;;;;;5.62;76.28;100465.16;6186227;23;20029;-76
2023/02/25 08:42:24;;;;;;;0.00;0.00;;;;;;;5.83;75.02;100464.63;6187904;23;20070;-77
2023/02/25 08:44:49;;;;;;;0.00;0.00;;;;;;;6.00;74.42;100467.53;6186891;23;20055;-77
2023/02/25 08:47:16;;;;;;;0.00;0.00;;;;;;;6.23;72.93;100465.88;6164917;23;20021;-74
2023/02/25 08:49:41;;;;;;;0.00;0.00;;;;;;;6.39;72.55;100462.44;6182479;23;20507;-73
2023/02/25 08:52:11;;;;;;;0.00;0.00;;;;;;;6.52;70.99;100465.97;6191065;23;20010;-78
2023/02/25 08:54:37;;;;;;;0.00;0.00;;;;;;;6.63;71.11;100476.00;6136432;23;20028;-76
2023/02/25 08:57:04;;;;;;;0.00;0.00;;;;;;;6.72;70.06;100471.84;6186053;23;20336;-76
2023/02/25 08:59:34;;;;;;;0.10;0.10;;;;;;;6.86;68.70;100474.28;6137208;23;20503;-74
2023/02/25 09:02:02;;;;;;;0.00;0.00;;;;;;;6.90;68.53;100459.16;6185454;23;20000;-77
2023/02/25 09:04:27;;;;;;;0.00;0.00;;;;;;;6.99;68.39;100463.16;6189065;23;20028;-75
2023/02/25 09:06:57;;;;;;;0.10;0.10;;;;;;;7.11;67.56;100473.97;6159369;23;20017;-76
2023/02/25 09:09:23;;;;;;;0.00;0.00;;;;;;;6.85;67.13;100453.59;6186347;23;20001;-75
2023/02/25 09:11:58;;;;;;;0.00;0.00;;;;;;;6.84;66.89;100460.13;6187045;23;20012;-74
2023/02/25 09:14:26;;;;;;;0.00;0.00;;;;;;;6.95;66.66;100484.56;6185094;23;20015;-74
2023/02/25 09:16:52;;;;;;;0.10;0.10;;;;;;;6.78;65.90;100470.88;6191845;23;20005;-74
2023/02/25 09:19:20;;;;;;;0.00;0.00;;;;;;;6.81;66.91;100473.13;6189613;23;20005;-74
2023/02/25 09:21:49;;;;;;;0.00;0.00;;;;;;;6.98;66.65;100475.09;6191509;23;20004;-74
2023/02/25 09:24:44;;;;;;;0.00;0.00;;;;;;;7.15;67.10;100473.28;6188316;23;20013;-75
2023/02/25 09:27:09;;;;;;;0.00;0.00;;;;;;;7.26;65.05;100478.91;6179835;23;20021;-75
2023/02/25 09:29:41;;;;;;;0.00;0.00;;;;;;;7.39;65.32;100489.50;6190947;23;20025;-74
2023/02/25 09:32:07;;;;;;;0.00;0.00;;;;;;;7.39;64.44;100484.06;6190332;23;20029;-72
2023/02/25 09:34:35;;;;;;;0.00;0.00;;;;;;;7.56;64.26;100499.59;6162564;23;20033;-73
2023/02/25 09:37:24;;;;;;;0.00;0.00;;;;;;;7.71;64.43;100469.09;6187106;23;20062;-78
2023/02/25 09:39:50;;;;;;;0.00;0.00;;;;;;;8.27;63.10;100480.91;6167086;23;20004;-75
2023/02/25 09:42:26;;;;;;;0.00;0.00;;;;;;;9.30;61.92;100501.38;6163351;23;20701;-76
2023/02/25 09:45:03;;;;;;;0.00;0.00;;;;;;;10.16;58.17;100488.78;6158383;23;20059;-74
2023/02/25 09:47:39;;;;;;;0.00;0.00;;;;;;;10.20;56.51;100487.19;6187201;23;20008;-75
2023/02/25 09:50:22;;;;;;;0.00;0.00;;;;;;;9.93;56.21;100492.72;6182767;23;20063;-77
2023/02/25 09:53:17;;;;;;;0.00;0.00;;;;;;;9.41;56.24;100510.50;6187646;23;20008;-75
2023/02/25 09:55:59;;;;;;;0.00;0.00;;;;;;;9.09;58.33;100505.75;6187106;23;20005;-76
2023/02/25 10:09:28;;;;;;;0.00;0.00;;;;;;;13.45;47.74;100513.09;6102791;23;20106;-79
2023/02/25 10:11:56;;;;;;;0.00;0.00;;;;;;;13.05;47.41;100517.63;6075823;23;19998;-78
2023/02/25 10:14:50;;;;;;;0.00;0.00;;;;;;;12.93;48.87;100512.47;6147776;23;20005;-75
2023/02/25 10:17:42;;;;;;;0.00;0.00;;;;;;;16.07;45.11;100527.97;6196556;23;20339;-78
2023/02/25 10:20:28;;;;;;;0.00;0.00;;;;;;;20.52;36.66;100509.94;6194062;23;20001;-77
2023/02/25 10:23:16;;;;;;;0.00;0.00;;;;;;;21.22;32.98;100515.22;6194016;23;20005;-79
2023/02/25 10:26:12;;;;;;;0.00;0.00;;;;;;;19.15;33.49;100510.06;6196322;23;20000;-76
2023/02/25 10:28:41;;;;;;;0.00;0.00;;;;;;;17.02;36.22;100519.41;6168793;23;20043;-77
2023/02/25 10:31:20;;;;;;;0.00;0.00;;;;;;;15.38;38.66;100507.19;6194026;23;20064;-78
2023/02/25 10:33:49;;;;;;;0.00;0.00;;;;;;;14.44;41.19;100516.75;6166907;23;20013;-74
2023/02/25 10:36:18;;;;;;;0.00;0.00;;;;;;;13.30;42.97;100511.19;6190978;23;20074;-80
2023/02/25 10:38:51;;;;;;;0.00;0.00;;;;;;;12.37;44.05;100511.47;6169879;23;20461;-81
2023/02/25 10:41:28;;;;;;;0.00;0.00;;;;;;;11.66;46.37;100507.59;6194944;23;20001;-81
2023/02/25 10:44:20;;;;;;;0.00;0.00;;;;;;;11.22;47.47;100497.06;6198977;23;20067;-80
2023/02/25 10:46:54;;;;;;;0.00;0.00;;;;;;;11.23;48.37;100520.63;6158691;23;20056;-82
2023/02/25 10:53:15;;;;;;;;;;;;;;;11.23;48.78;100520.63;6139171;23;20048;-80
2023/02/25 10:55:50;;;;;;;0.00;0.00;;;;;;;11.38;49.60;100527.25;6151001;23;19908;-79
2023/02/25 10:58:51;;;;;;;0.00;0.00;;;;;;;11.21;48.33;100517.31;6196157;23;20061;-81
2023/02/25 11:01:56;;;;;;;0.00;0.00;;;;;;;11.07;48.38;100522.47;6163250;23;19989;-81
2023/02/25 11:05:28;;;;;;;0.00;0.00;;;;;;;11.51;49.11;100496.63;6170456;23;20005;-80
2023/02/25 11:08:08;;;;;;;0.00;0.00;;;;;;;12.14;48.30;100536.72;6093947;23;20137;-80
2023/02/25 11:10:38;;;;;;;0.00;0.00;;;;;;;12.24;47.46;100501.09;6167010;23;20016;-78
2023/02/25 11:13:17;;;;;;;;;;;;;;;;;;;;;
2023/02/25 11:16:19;;;;;;;0.00;0.00;;;;;;;12.54;45.41;100526.81;6170088;23;20052;-79
2023/02/25 11:19:25;;;;;;;0.00;0.00;;;;;;;12.47;45.50;100509.81;6158810;23;20487;-79
2023/02/25 11:22:44;;;;;;;0.00;0.00;;;;;;;12.78;45.64;100521.56;6166599;23;20024;-81
2023/02/25 11:25:49;;;;;;;0.00;0.00;;;;;;;13.02;44.76;100509.97;6198665;23;20036;-80
2023/02/25 11:28:38;;;;;;;0.00;0.00;;;;;;;13.59;43.61;100525.09;6174135;23;20005;-77
2023/02/25 11:31:43;;;;;;;0.00;0.00;;;;;;;14.09;42.76;100526.94;6198829;23;20005;-79
2023/02/25 11:35:18;;;;;;;;;;;;;;;;;;;;;
2023/02/25 11:38:40;;;;;;;0.00;0.00;;;;;;;13.96;41.54;100501.75;6190568;23;20009;-80
2023/02/25 11:41:44;;;;;;;0.00;0.00;;;;;;;14.37;40.38;100492.34;6200069;23;20020;-78
2023/02/25 11:44:51;;;;;;;0.00;0.00;;;;;;;14.65;41.31;100511.91;6198543;23;20009;-79
2023/02/25 11:50:41;;;;;;;0.00;0.00;;;;;;;12.36;43.04;100484.34;6192427;23;20015;-81
2023/02/25 11:53:47;;;;;;;0.00;0.00;;;;;;;11.40;45.54;100514.91;6176858;23;20009;-82
2023/02/25 11:57:27;;;;;;;;;;;;;;;;;;;;;
2023/02/25 12:03:42;;;;;;;;;;;;;;;;;;;;;
2023/02/25 12:06:32;;;;;;;0.00;0.00;;;;;;;21.10;34.24;100513.97;6199737;23;20397;-78
2023/02/25 12:13:01;;;;;;;0.00;0.00;;;;;;;17.18;35.07;100520.72;6186904;23;20020;-79
2023/02/25 12:16:30;;;;;;;;;;;;;;;;;;;;;
2023/02/25 12:19:35;;;;;;;0.00;0.00;;;;;;;13.25;39.99;100475.53;6199816;23;20008;-79
2023/02/25 12:25:11;;;;;;;0.00;0.00;;;;;;;12.28;43.88;100483.00;6192309;23;20036;-78
2023/02/25 12:27:57;;;;;;;0.00;0.00;;;;;;;12.27;44.17;100486.00;6152525;23;20011;-78
2023/02/25 12:30:32;;;;;;;0.03;0.03;;;;;;;11.91;44.72;100486.78;6200833;23;20017;-78
2023/02/25 12:33:19;;;;;;;0.00;0.00;;;;;;;11.48;45.55;100483.47;6172823;23;20008;-77
2023/02/25 12:35:55;;;;;;;0.00;0.00;;;;;;;10.86;46.56;100460.53;6193474;23;20008;-76
2023/02/25 12:39:05;;;;;;;;;;;;;;;;;;;;;
2023/02/25 12:41:46;;;;;;;0.00;0.00;;;;;;;9.78;49.53;100474.28;6193921;23;20020;-75
2023/02/25 12:44:34;;;;;;;0.00;0.00;;;;;;;9.35;50.51;100476.06;6194397;23;20005;-73